createdAt,value
2019-03-28T00:00:06.256Z,8.33
2019-03-28T00:02:35.138Z,8.22
2019-03-28T00:05:03.852Z,8.18
2019-03-28T00:07:32.562Z,8.12
2019-03-28T00:10:01.351Z,8.09
2019-03-28T00:12:30.070Z,8.09
2019-03-28T00:14:58.788Z,8.10
2019-03-28T00:17:27.671Z,8.07
2019-03-28T00:19:56.393Z,8.12
2019-03-28T00:22:30.902Z,8.21
2019-03-28T00:25:07.230Z,8.37
2019-03-28T00:27:35.997Z,8.29
2019-03-28T00:30:07.062Z,8.54
2019-03-28T00:32:35.778Z,8.35
2019-03-28T00:35:06.435Z,8.45
2019-03-28T00:37:35.292Z,8.52
2019-03-28T00:40:05.273Z,8.49
2019-03-28T00:42:35.099Z,8.55
2019-03-28T00:45:04.686Z,8.66
2019-03-28T00:47:33.414Z,8.60
2019-03-28T00:50:02.586Z,8.38
2019-03-28T00:52:31.317Z,8.46
2019-03-28T00:55:00.041Z,8.46
2019-03-28T00:57:28.844Z,8.30
2019-03-28T00:59:57.561Z,8.30
2019-03-28T01:02:26.288Z,8.30
2019-03-28T01:04:55.143Z,8.27
2019-03-28T01:07:24.277Z,8.31
2019-03-28T01:09:53.011Z,8.25
2019-03-28T01:12:21.783Z,8.16
2019-03-28T01:14:50.505Z,8.12
2019-03-28T01:17:19.227Z,8.15
2019-03-28T01:19:48.040Z,8.10
2019-03-28T01:22:16.836Z,8.03
2019-03-28T01:24:45.561Z,7.93
2019-03-28T01:27:14.477Z,7.87
2019-03-28T01:29:43.206Z,7.86
2019-03-28T01:32:11.927Z,7.77
2019-03-28T01:34:40.831Z,7.77
2019-03-28T01:37:09.554Z,7.68
2019-03-28T01:39:38.273Z,7.54
2019-03-28T01:42:07.040Z,7.61
2019-03-28T01:44:35.779Z,7.63
2019-03-28T01:47:04.491Z,7.58
2019-03-28T01:49:33.257Z,7.54
2019-03-28T01:52:04.284Z,7.47
2019-03-28T01:54:32.428Z,7.40
2019-03-28T01:57:10.778Z,7.50
2019-03-28T01:59:31.642Z,7.43
2019-03-28T02:02:00.369Z,7.57
2019-03-28T02:04:29.274Z,7.58
2019-03-28T02:06:58.014Z,7.45
2019-03-28T02:09:26.732Z,7.56
2019-03-28T02:11:55.587Z,7.52
2019-03-28T02:14:24.318Z,7.46
2019-03-28T02:16:53.039Z,7.59
2019-03-28T02:19:21.796Z,7.59
2019-03-28T02:21:50.524Z,7.56
2019-03-28T02:24:19.244Z,7.48
2019-03-28T02:26:48.014Z,7.53
2019-03-28T02:29:16.768Z,7.71
2019-03-28T02:31:45.497Z,7.55
2019-03-28T02:34:14.357Z,7.47
2019-03-28T02:36:43.069Z,7.41
2019-03-28T02:39:11.790Z,7.40
2019-03-28T02:41:40.621Z,7.47
2019-03-28T02:44:09.343Z,7.33
2019-03-28T02:46:38.061Z,7.43
2019-03-28T02:49:06.939Z,7.43
2019-03-28T02:51:35.659Z,7.34
2019-03-28T02:54:05.509Z,7.36
2019-03-28T02:56:34.415Z,7.35
2019-03-28T02:59:03.205Z,7.38
2019-03-28T03:01:31.939Z,7.39
2019-03-28T03:04:00.768Z,7.34
2019-03-28T03:06:29.494Z,7.35
2019-03-28T03:08:58.211Z,7.50
2019-03-28T03:11:27.059Z,7.57
2019-03-28T03:13:55.775Z,7.56
2019-03-28T03:16:24.494Z,7.69
2019-03-28T03:18:53.669Z,7.85
2019-03-28T03:21:22.498Z,7.67
2019-03-28T03:23:51.209Z,7.74
2019-03-28T03:26:20.323Z,7.74
2019-03-28T03:28:49.048Z,7.76
2019-03-28T03:31:21.237Z,7.68
2019-03-28T03:33:48.817Z,7.65
2019-03-28T03:36:17.523Z,7.47
2019-03-28T03:38:46.309Z,7.42
2019-03-28T03:41:15.212Z,7.45
2019-03-28T03:43:43.934Z,7.36
2019-03-28T03:46:12.644Z,7.29
2019-03-28T03:48:41.583Z,7.23
2019-03-28T03:51:10.296Z,7.07
2019-03-28T03:53:39.022Z,7.07
2019-03-28T03:56:07.895Z,7.01
2019-03-28T03:58:36.622Z,7.00
2019-03-28T04:01:05.318Z,7.07
2019-03-28T04:03:34.420Z,7.06
2019-03-28T04:06:03.364Z,7.10
2019-03-28T04:08:32.032Z,7.01
2019-03-28T04:11:00.783Z,6.93
2019-03-28T04:13:29.504Z,6.84
2019-03-28T04:15:58.216Z,6.95
2019-03-28T04:18:27.006Z,6.81
2019-03-28T04:20:55.723Z,6.83
2019-03-28T04:23:24.452Z,6.64
2019-03-28T04:25:53.228Z,6.51
2019-03-28T04:28:31.461Z,6.45
2019-03-28T04:30:52.387Z,6.43
2019-03-28T04:33:21.174Z,6.39
2019-03-28T04:35:49.890Z,6.32
2019-03-28T04:38:18.611Z,6.28
2019-03-28T04:40:47.505Z,6.30
2019-03-28T04:43:16.221Z,6.42
2019-03-28T04:45:44.933Z,6.37
2019-03-28T04:48:13.695Z,6.42
2019-03-28T04:50:42.413Z,6.40
2019-03-28T04:53:11.577Z,6.38
2019-03-28T04:55:40.527Z,6.47
2019-03-28T04:58:09.253Z,6.47
2019-03-28T05:00:37.964Z,6.49
2019-03-28T05:03:06.753Z,6.62
2019-03-28T05:05:35.460Z,6.70
2019-03-28T05:08:04.176Z,6.77
2019-03-28T05:10:33.295Z,6.78
2019-03-28T05:13:02.059Z,6.74
2019-03-28T05:15:30.776Z,6.92
2019-03-28T05:17:59.610Z,7.11
2019-03-28T05:20:28.322Z,7.18
2019-03-28T05:22:57.034Z,7.43
2019-03-28T05:25:26.258Z,7.52
2019-03-28T05:27:54.962Z,7.45
2019-03-28T05:30:23.682Z,7.55
2019-03-28T05:32:52.454Z,7.66
2019-03-28T05:35:21.192Z,7.67
2019-03-28T05:37:49.909Z,7.77
2019-03-28T05:40:18.684Z,7.90
2019-03-28T05:42:47.400Z,7.94
2019-03-28T05:45:16.116Z,8.02
2019-03-28T05:47:44.911Z,8.10
2019-03-28T05:50:15.025Z,8.12
2019-03-28T05:52:43.740Z,8.04
2019-03-28T05:55:12.953Z,7.99
2019-03-28T05:57:41.671Z,7.84
2019-03-28T06:00:11.435Z,7.83
2019-03-28T06:02:40.350Z,7.85
2019-03-28T06:05:09.166Z,7.82
2019-03-28T06:07:37.883Z,7.94
2019-03-28T06:10:08.479Z,8.06
2019-03-28T06:12:37.198Z,8.06
2019-03-28T06:15:09.576Z,8.20
2019-03-28T06:17:38.433Z,8.11
2019-03-28T06:20:08.447Z,8.19
2019-03-28T06:22:37.155Z,8.20
2019-03-28T06:25:06.398Z,8.10
2019-03-28T06:27:35.232Z,8.02
2019-03-28T06:30:05.056Z,7.99
2019-03-28T06:32:42.868Z,7.93
2019-03-28T06:35:05.852Z,7.98
2019-03-28T06:37:34.572Z,8.12
2019-03-28T06:40:03.395Z,8.23
2019-03-28T06:42:32.117Z,8.17
2019-03-28T06:45:03.519Z,8.22
2019-03-28T06:47:31.300Z,8.22
2019-03-28T06:50:00.021Z,8.15
2019-03-28T06:52:28.736Z,8.22
2019-03-28T06:54:57.488Z,8.40
2019-03-28T06:57:26.200Z,8.49
2019-03-28T06:59:54.918Z,8.53
2019-03-28T07:02:23.816Z,8.60
2019-03-28T07:04:52.531Z,8.60
2019-03-28T07:07:21.243Z,8.58
2019-03-28T07:09:50.435Z,8.58
2019-03-28T07:12:19.153Z,8.60
2019-03-28T07:14:47.880Z,8.71
2019-03-28T07:17:17.023Z,8.75
2019-03-28T07:19:45.750Z,8.83
2019-03-28T07:22:14.470Z,8.89
2019-03-28T07:24:43.279Z,8.86
2019-03-28T07:27:11.990Z,8.85
2019-03-28T07:29:50.610Z,8.79
2019-03-28T07:32:11.305Z,8.88
2019-03-28T07:34:40.026Z,8.97
2019-03-28T07:37:08.881Z,8.82
2019-03-28T07:39:38.149Z,8.79
2019-03-28T07:42:06.897Z,8.93
2019-03-28T07:44:37.559Z,8.86
2019-03-28T07:47:06.114Z,8.93
2019-03-28T07:49:37.498Z,8.93
2019-03-28T07:52:05.371Z,9.11
2019-03-28T07:54:34.158Z,9.21
2019-03-28T07:57:02.883Z,9.28
2019-03-28T07:59:31.599Z,9.47
2019-03-28T08:02:00.499Z,9.51
2019-03-28T08:04:29.617Z,9.71
2019-03-28T08:06:58.343Z,10.18
2019-03-28T08:09:36.535Z,10.54
2019-03-28T08:11:57.571Z,10.69
2019-03-28T08:14:26.289Z,10.54
2019-03-28T08:16:55.061Z,10.27
2019-03-28T08:19:23.788Z,10.27
2019-03-28T08:21:52.507Z,10.44
2019-03-28T08:24:21.310Z,10.58
2019-03-28T08:26:50.033Z,10.35
2019-03-28T08:29:18.765Z,10.33
2019-03-28T08:31:49.223Z,10.41
2019-03-28T08:34:18.685Z,10.33
2019-03-28T08:36:48.101Z,10.25
2019-03-28T08:39:17.978Z,10.43
2019-03-28T08:41:51.163Z,10.38
2019-03-28T08:44:22.561Z,10.15
2019-03-28T08:46:50.635Z,10.17
2019-03-28T08:49:19.369Z,10.16
2019-03-28T08:51:48.121Z,10.13
2019-03-28T08:54:17.057Z,10.01
2019-03-28T08:56:45.779Z,10.26
2019-03-28T08:59:14.501Z,10.22
2019-03-28T09:01:43.333Z,10.29
2019-03-28T09:04:13.634Z,10.35
2019-03-28T09:06:42.360Z,10.48
2019-03-28T09:09:11.230Z,10.58
2019-03-28T09:11:39.949Z,10.71
2019-03-28T09:14:08.677Z,11.05
2019-03-28T09:16:37.573Z,11.26
2019-03-28T09:19:07.889Z,11.15
2019-03-28T09:21:36.629Z,11.17
2019-03-28T09:24:05.879Z,11.35
2019-03-28T09:26:34.601Z,11.47
2019-03-28T09:29:03.361Z,11.46
2019-03-28T09:31:32.230Z,11.49
2019-03-28T09:34:00.973Z,11.83
2019-03-28T09:36:29.696Z,12.09
2019-03-28T09:38:58.980Z,12.06
2019-03-28T09:41:27.696Z,12.27
2019-03-28T09:43:56.438Z,12.37
2019-03-28T09:46:36.057Z,12.63
2019-03-28T09:49:26.943Z,12.43
2019-03-28T09:51:55.785Z,12.39
2019-03-28T09:54:24.580Z,12.53
2019-03-28T09:56:53.313Z,12.50
2019-03-28T09:59:22.181Z,13.38
2019-03-28T10:01:50.901Z,13.87
2019-03-28T10:04:19.624Z,13.87
2019-03-28T10:06:48.387Z,14.06
2019-03-28T10:09:17.141Z,14.18
2019-03-28T10:11:45.855Z,14.32
2019-03-28T10:14:14.664Z,14.35
2019-03-28T10:16:43.387Z,14.70
2019-03-28T10:19:12.495Z,14.88
2019-03-28T10:21:41.579Z,15.15
2019-03-28T10:24:10.299Z,15.69
2019-03-28T10:26:39.528Z,16.04
2019-03-28T10:29:08.660Z,16.04
2019-03-28T10:31:37.379Z,16.23
2019-03-28T10:34:06.106Z,16.47
2019-03-28T10:36:34.866Z,16.04
2019-03-28T10:39:04.996Z,16.12
2019-03-28T10:41:33.729Z,16.09
2019-03-28T10:44:02.559Z,15.98
2019-03-28T10:46:31.379Z,15.88
2019-03-28T10:49:00.102Z,15.77
2019-03-28T10:51:29.069Z,15.90
2019-03-28T10:53:57.787Z,15.42
2019-03-28T10:56:26.539Z,14.60
2019-03-28T10:58:55.321Z,14.45
2019-03-28T11:01:41.525Z,14.52
2019-03-28T11:03:54.495Z,15.11
2019-03-28T11:06:23.302Z,15.23
2019-03-28T11:08:52.026Z,15.62
2019-03-28T11:11:20.752Z,15.96
2019-03-28T11:13:49.780Z,16.12
2019-03-28T11:16:18.510Z,16.01
2019-03-28T11:18:47.234Z,16.26
2019-03-28T11:21:16.013Z,16.57
2019-03-28T11:23:44.738Z,16.60
2019-03-28T11:26:13.498Z,16.68
2019-03-28T11:28:42.527Z,16.91
2019-03-28T11:31:11.196Z,17.02
2019-03-28T11:33:39.921Z,16.93
2019-03-28T11:36:08.680Z,16.76
2019-03-28T11:38:37.409Z,16.46
2019-03-28T11:41:06.132Z,16.81
2019-03-28T11:43:35.094Z,16.64
2019-03-28T11:46:03.837Z,15.91
2019-03-28T11:48:32.541Z,15.96
2019-03-28T11:51:01.341Z,15.94
2019-03-28T11:53:29.893Z,16.30
2019-03-28T11:55:58.598Z,15.77
2019-03-28T11:58:27.488Z,16.07
2019-03-28T12:00:56.215Z,16.41
2019-03-28T12:03:24.946Z,16.39
2019-03-28T12:05:53.738Z,16.59
2019-03-28T12:08:22.455Z,16.68
2019-03-28T12:10:51.173Z,16.29
2019-03-28T12:13:20.329Z,16.83
2019-03-28T12:15:49.346Z,16.64
2019-03-28T12:18:18.073Z,16.62
2019-03-28T12:20:46.856Z,16.52
2019-03-28T12:23:15.577Z,16.41
2019-03-28T12:25:47.248Z,16.51
2019-03-28T12:28:14.897Z,16.60
2019-03-28T12:30:43.848Z,16.99
2019-03-28T12:33:12.813Z,17.31
2019-03-28T12:35:41.676Z,17.41
2019-03-28T12:38:10.394Z,17.76
2019-03-28T12:40:39.118Z,17.19
2019-03-28T12:43:07.931Z,15.94
2019-03-28T12:45:36.661Z,15.95
2019-03-28T12:48:05.383Z,16.53
2019-03-28T12:50:34.261Z,16.83
2019-03-28T12:53:02.985Z,16.57
2019-03-28T12:55:31.709Z,17.27
2019-03-28T12:58:00.626Z,16.77
2019-03-28T13:00:36.947Z,15.79
2019-03-28T13:03:05.926Z,14.68
2019-03-28T13:05:35.031Z,14.45
2019-03-28T13:08:04.245Z,14.16
2019-03-28T13:10:33.057Z,14.31
2019-03-28T13:13:01.787Z,14.30
2019-03-28T13:15:30.510Z,14.50
2019-03-28T13:17:59.589Z,14.99
2019-03-28T13:20:28.308Z,15.02
2019-03-28T13:22:57.037Z,15.24
2019-03-28T13:25:25.802Z,15.65
2019-03-28T13:27:54.525Z,16.04
2019-03-28T13:30:23.349Z,16.37
2019-03-28T13:32:52.111Z,16.54
2019-03-28T13:35:20.834Z,16.27
2019-03-28T13:37:49.558Z,16.03
2019-03-28T13:40:18.360Z,16.22
2019-03-28T13:42:47.083Z,15.72
2019-03-28T13:45:16.217Z,16.10
2019-03-28T13:47:45.006Z,16.21
2019-03-28T13:50:14.947Z,16.43
2019-03-28T13:52:43.682Z,16.11
2019-03-28T13:55:12.555Z,15.99
2019-03-28T13:57:43.396Z,16.29
2019-03-28T14:00:12.523Z,16.13
2019-03-28T14:02:54.274Z,16.17
2019-03-28T14:05:13.153Z,16.11
2019-03-28T14:07:42.130Z,16.66
2019-03-28T14:10:11.109Z,17.14
2019-03-28T14:12:39.834Z,17.74
2019-03-28T14:15:08.861Z,17.92
2019-03-28T14:17:37.703Z,17.31
2019-03-28T14:20:07.231Z,16.27
2019-03-28T14:22:37.632Z,15.47
2019-03-28T14:25:07.522Z,16.02
2019-03-28T14:27:36.227Z,15.99
2019-03-28T14:30:09.773Z,15.99
2019-03-28T14:32:52.140Z,15.33
2019-03-28T14:35:09.348Z,14.77
2019-03-28T14:37:40.631Z,14.91
2019-03-28T14:40:12.266Z,14.20
2019-03-28T14:42:41.267Z,13.61
2019-03-28T14:45:10.992Z,13.25
2019-03-28T14:47:39.959Z,13.59
2019-03-28T14:50:10.570Z,13.71
2019-03-28T14:52:39.431Z,13.73
2019-03-28T14:55:08.385Z,13.66
2019-03-28T14:57:37.108Z,13.65
2019-03-28T15:00:11.772Z,13.59
2019-03-28T15:02:40.547Z,13.76
2019-03-28T15:05:09.473Z,13.85
2019-03-28T15:07:38.207Z,13.98
2019-03-28T15:10:08.076Z,13.75
2019-03-28T15:12:36.792Z,13.65
2019-03-28T15:15:06.521Z,13.63
2019-03-28T15:17:35.658Z,14.24
2019-03-28T15:20:06.501Z,14.47
2019-03-28T15:22:35.227Z,14.03
2019-03-28T15:25:04.908Z,13.81
2019-03-28T15:27:33.629Z,13.33
2019-03-28T15:30:02.353Z,13.06
2019-03-28T15:32:31.121Z,13.15
2019-03-28T15:35:01.409Z,13.15
2019-03-28T15:37:30.131Z,13.38
2019-03-28T15:39:59.102Z,13.45
2019-03-28T15:42:28.195Z,13.09
2019-03-28T15:44:56.938Z,12.71
2019-03-28T15:47:25.795Z,12.25
2019-03-28T15:49:54.514Z,12.02
2019-03-28T15:52:23.252Z,12.08
2019-03-28T15:54:52.054Z,11.95
2019-03-28T15:57:20.786Z,12.02
2019-03-28T15:59:49.510Z,12.04
2019-03-28T16:02:18.371Z,12.06
2019-03-28T16:04:47.102Z,11.97
2019-03-28T16:07:15.826Z,11.84
2019-03-28T16:09:44.732Z,11.78
2019-03-28T16:12:13.469Z,11.59
2019-03-28T16:14:42.226Z,11.38
2019-03-28T16:17:11.161Z,11.22
2019-03-28T16:19:39.903Z,11.00
2019-03-28T16:22:08.614Z,11.00
2019-03-28T16:24:37.498Z,10.95
2019-03-28T16:27:06.230Z,10.81
2019-03-28T16:29:34.953Z,10.73
2019-03-28T16:32:03.835Z,10.61
2019-03-28T16:34:39.414Z,10.47
2019-03-28T16:37:08.413Z,10.26
2019-03-28T16:39:37.801Z,10.28
2019-03-28T16:42:06.634Z,10.12
2019-03-28T16:44:35.550Z,10.02
2019-03-28T16:47:04.288Z,10.03
2019-03-28T16:49:33.009Z,10.01
2019-03-28T16:52:01.890Z,10.06
2019-03-28T16:54:30.616Z,9.98
2019-03-28T16:56:59.875Z,9.90
2019-03-28T16:59:28.754Z,9.81
2019-03-28T17:01:57.479Z,9.73
2019-03-28T17:04:26.589Z,9.60
2019-03-28T17:06:55.851Z,9.48
2019-03-28T17:09:25.582Z,9.36
2019-03-28T17:11:54.300Z,9.26
2019-03-28T17:14:23.093Z,9.30
2019-03-28T17:16:51.811Z,9.33
2019-03-28T17:19:20.533Z,9.34
2019-03-28T17:21:50.720Z,9.34
2019-03-28T17:24:19.446Z,9.33
2019-03-28T17:26:48.173Z,9.39
2019-03-28T17:29:16.946Z,9.49
2019-03-28T17:31:45.664Z,9.52
2019-03-28T17:34:14.387Z,9.54
2019-03-28T17:36:43.572Z,9.62
2019-03-28T17:39:12.298Z,9.62
2019-03-28T17:41:41.029Z,9.72
2019-03-28T17:44:09.791Z,9.86
2019-03-28T17:46:38.597Z,9.75
2019-03-28T17:49:08.303Z,9.59
2019-03-28T17:51:40.320Z,9.42
2019-03-28T17:54:07.546Z,9.25
2019-03-28T17:56:36.274Z,9.15
2019-03-28T17:59:05.071Z,9.00
2019-03-28T18:01:33.800Z,8.86
2019-03-28T18:04:02.521Z,8.70
2019-03-28T18:06:31.453Z,8.57
2019-03-28T18:09:00.221Z,8.39
2019-03-28T18:11:28.961Z,8.20
2019-03-28T18:13:57.827Z,8.08
2019-03-28T18:16:26.608Z,7.96
2019-03-28T18:18:55.300Z,7.91
2019-03-28T18:21:24.213Z,7.81
2019-03-28T18:23:53.898Z,7.64
2019-03-28T18:26:22.641Z,7.49
2019-03-28T18:28:51.438Z,7.37
2019-03-28T18:31:20.172Z,7.30
2019-03-28T18:33:48.905Z,7.25
2019-03-28T18:36:17.669Z,7.23
2019-03-28T18:38:46.393Z,7.75
2019-03-28T18:41:15.122Z,7.65
2019-03-28T18:43:43.988Z,7.32
2019-03-28T18:46:14.825Z,7.10
2019-03-28T18:48:43.177Z,6.86
2019-03-28T18:51:12.070Z,6.79
2019-03-28T18:53:40.793Z,6.87
2019-03-28T18:56:09.513Z,6.83
2019-03-28T18:58:38.440Z,6.82
2019-03-28T19:01:07.271Z,6.70
2019-03-28T19:03:36.003Z,6.58
2019-03-28T19:06:04.861Z,6.39
2019-03-28T19:08:33.644Z,6.27
2019-03-28T19:11:03.268Z,6.17
2019-03-28T19:13:33.260Z,6.02
2019-03-28T19:16:01.983Z,5.93
2019-03-28T19:18:33.456Z,6.04
2019-03-28T19:21:02.578Z,5.93
2019-03-28T19:23:31.306Z,5.91
2019-03-28T19:26:01.048Z,5.80
2019-03-28T19:28:30.195Z,6.01
2019-03-28T19:30:58.915Z,5.72
2019-03-28T19:33:28.236Z,5.68
2019-03-28T19:36:01.137Z,5.68
2019-03-28T19:38:28.509Z,5.39
2019-03-28T19:40:57.231Z,4.83
2019-03-28T19:43:26.362Z,4.74
2019-03-28T19:45:55.495Z,4.46
2019-03-28T19:48:24.193Z,4.32
2019-03-28T19:50:52.995Z,4.38
2019-03-28T19:53:21.713Z,4.55
2019-03-28T19:55:50.429Z,4.69
2019-03-28T19:58:19.712Z,4.75
2019-03-28T20:00:48.429Z,4.73
2019-03-28T20:03:17.148Z,4.70
2019-03-28T20:05:47.867Z,4.59
2019-03-28T20:08:18.665Z,4.45
2019-03-28T20:10:47.123Z,4.31
2019-03-28T20:13:15.959Z,4.10
2019-03-28T20:15:44.684Z,4.11
2019-03-28T20:18:13.399Z,4.03
2019-03-28T20:20:42.187Z,3.96
2019-03-28T20:23:10.903Z,3.79
2019-03-28T20:25:42.704Z,3.98
2019-03-28T20:28:10.234Z,4.11
2019-03-28T20:30:38.953Z,4.09
2019-03-28T20:33:07.668Z,3.83
2019-03-28T20:35:36.507Z,3.87
2019-03-28T20:38:05.334Z,3.81
2019-03-28T20:40:34.056Z,3.51
2019-03-28T20:43:02.915Z,3.14
2019-03-28T20:45:32.036Z,2.89
2019-03-28T20:48:00.748Z,3.16
2019-03-28T20:50:31.705Z,3.51
2019-03-28T20:52:59.953Z,3.87
2019-03-28T20:55:28.669Z,4.02
2019-03-28T20:57:57.449Z,3.98
2019-03-28T21:00:39.070Z,3.93
2019-03-28T21:03:08.679Z,3.91
2019-03-28T21:05:37.413Z,3.93
2019-03-28T21:08:06.131Z,3.88
2019-03-28T21:10:35.114Z,3.99
2019-03-28T21:13:03.836Z,4.09
2019-03-28T21:15:32.550Z,4.15
2019-03-28T21:18:01.392Z,4.12
2019-03-28T21:20:30.116Z,4.20
2019-03-28T21:22:58.827Z,4.27
2019-03-28T21:25:29.802Z,4.31
2019-03-28T21:27:58.838Z,4.35
2019-03-28T21:30:27.858Z,4.48
2019-03-28T21:32:57.754Z,4.31
2019-03-28T21:35:26.921Z,4.14
2019-03-28T21:37:55.641Z,4.05
2019-03-28T21:40:24.501Z,3.70
2019-03-28T21:42:53.228Z,3.41
2019-03-28T21:45:21.954Z,3.06
2019-03-28T21:47:50.921Z,2.98
2019-03-28T21:50:19.835Z,2.97
2019-03-28T21:52:48.550Z,2.74
2019-03-28T21:55:17.621Z,2.55
2019-03-28T21:57:46.359Z,2.41
2019-03-28T22:00:15.377Z,2.41
2019-03-28T22:02:53.818Z,2.48
2019-03-28T22:05:22.543Z,2.45
2019-03-28T22:07:51.267Z,2.17
2019-03-28T22:10:20.076Z,2.21
2019-03-28T22:12:48.797Z,2.00
2019-03-28T22:15:17.521Z,1.84
2019-03-28T22:17:46.317Z,1.80
2019-03-28T22:20:15.125Z,1.67
2019-03-28T22:22:50.008Z,1.53
2019-03-28T22:25:18.769Z,1.53
2019-03-28T22:27:47.702Z,1.42
2019-03-28T22:30:17.944Z,1.53
2019-03-28T22:32:47.075Z,1.52
2019-03-28T22:35:15.795Z,1.32
2019-03-28T22:37:44.511Z,1.06
2019-03-28T22:40:13.470Z,0.92
2019-03-28T22:42:42.180Z,0.99
2019-03-28T22:45:12.413Z,1.00
2019-03-28T22:47:41.193Z,0.99
2019-03-28T22:50:10.214Z,1.05
2019-03-28T22:52:38.945Z,1.10
2019-03-28T22:55:09.197Z,1.11
2019-03-28T22:57:37.919Z,1.02
2019-03-28T23:00:12.633Z,0.90
2019-03-28T23:02:41.726Z,1.00
2019-03-28T23:05:11.140Z,1.33
2019-03-28T23:07:40.860Z,1.41
2019-03-28T23:10:10.622Z,1.37
2019-03-28T23:12:39.336Z,1.33
2019-03-28T23:15:09.251Z,1.39
2019-03-28T23:17:38.235Z,1.31
2019-03-28T23:20:10.638Z,1.24
2019-03-28T23:22:39.451Z,1.05
2019-03-28T23:25:09.023Z,0.91
2019-03-28T23:27:37.734Z,0.79
2019-03-28T23:30:08.656Z,0.73
2019-03-28T23:32:38.173Z,0.81
2019-03-28T23:35:07.736Z,0.85
2019-03-28T23:37:36.462Z,0.92
2019-03-28T23:40:07.041Z,0.95
2019-03-28T23:42:35.763Z,0.92
2019-03-28T23:45:06.637Z,0.96
2019-03-28T23:47:35.394Z,0.88
2019-03-28T23:50:05.416Z,0.83
2019-03-28T23:52:34.148Z,0.81
2019-03-28T23:55:03.024Z,0.94
2019-03-28T23:57:31.755Z,0.90
